Time;durP1;ratioP1;P1;durP2;ratioP2;P2;SDS_P1;SDS_P2;PMS_P1;PMS_P2;Temp;Humidity;BMP_temperature;BMP_pressure;BME280_temperature;BME280_humidity;BME280_pressure;Samples;Min_cycle;Max_cycle;Signal;HPM_P1;HPM_P2
2023/02/23 00:02:00;;;;;;;;;;;8.40;99.90;;;;;;4943905;28;19927;-66
2023/02/23 00:04:28;;;;;;;;;;;8.40;99.90;;;;;;4943726;28;19926;-66
2023/02/23 00:06:54;;;;;;;;;;;8.40;99.90;;;;;;4950296;29;20465;-67
2023/02/23 00:09:24;;;;;;;;;;;8.40;99.90;;;;;;4943319;28;20017;-66
2023/02/23 00:11:52;;;;;;;;;;;8.40;99.90;;;;;;4944026;28;19937;-66
2023/02/23 00:14:18;;;;;;;;;;;8.40;99.90;;;;;;4945240;28;19926;-66
2023/02/23 00:16:45;;;;;;;;;;;8.40;99.90;;;;;;4948132;28;19945;-66
2023/02/23 00:19:12;;;;;;;;;;;8.40;99.90;;;;;;4940042;28;20042;-66
2023/02/23 00:21:41;;;;;;;;;;;8.40;99.90;;;;;;4946398;28;20420;-68
2023/02/23 00:24:08;;;;;;;;;;;8.40;99.90;;;;;;4941422;28;19936;-68
2023/02/23 00:26:36;;;;;;;;;;;8.40;99.90;;;;;;4947947;28;19930;-67
2023/02/23 00:29:04;;;;;;;;;;;8.40;99.90;;;;;;4950190;28;19927;-66
2023/02/23 00:31:31;;;;;;;;;;;8.40;99.90;;;;;;4943688;28;19930;-66
2023/02/23 00:33:59;;;;;;;;;;;8.40;99.90;;;;;;4941471;28;20292;-66
2023/02/23 00:36:27;;;;;;;;;;;8.40;99.90;;;;;;4942937;28;20000;-67
2023/02/23 00:38:55;;;;;;;;;;;8.40;99.90;;;;;;4943393;28;19954;-68
2023/02/23 00:41:27;;;;;;;;;;;8.40;99.90;;;;;;4947017;28;19934;-67
2023/02/23 00:43:53;;;;;;;;;;;8.40;99.90;;;;;;4946295;28;19927;-67
2023/02/23 00:46:21;;;;;;;;;;;8.40;99.90;;;;;;4951515;28;19980;-67
2023/02/23 00:48:48;;;;;;;;;;;8.40;99.90;;;;;;4950484;28;20010;-67
2023/02/23 00:51:15;;;;;;;;;;;8.40;99.90;;;;;;4947490;28;19948;-67
2023/02/23 00:53:43;;;;;;;;;;;8.40;99.90;;;;;;4948927;28;19930;-67
2023/02/23 00:56:12;;;;;;;;;;;8.40;99.90;;;;;;4949362;28;20389;-67
2023/02/23 00:58:38;;;;;;;;;;;8.40;99.90;;;;;;4950857;28;19926;-67
2023/02/23 01:01:06;;;;;;;;;;;8.40;99.90;;;;;;4949972;28;20028;-67
2023/02/23 01:03:32;;;;;;;;;;;8.40;99.90;;;;;;4949002;28;20302;-67
2023/02/23 01:05:59;;;;;;;;;;;8.40;99.90;;;;;;4944331;28;19935;-67
2023/02/23 01:08:32;;;;;;;;;;;8.40;99.90;;;;;;4947459;28;20670;-67
2023/02/23 01:10:59;;;;;;;;;;;8.30;99.90;;;;;;4946877;28;20013;-67
2023/02/23 01:13:27;;;;;;;;;;;8.40;99.90;;;;;;4947496;28;19937;-68
2023/02/23 01:15:54;;;;;;;;;;;8.40;99.90;;;;;;4952237;28;20799;-67
2023/02/23 01:18:21;;;;;;;;;;;8.40;99.90;;;;;;4948501;28;19934;-67
2023/02/23 01:20:49;;;;;;;;;;;8.40;99.90;;;;;;4947783;28;19966;-68
2023/02/23 01:23:16;;;;;;;;;;;8.40;99.90;;;;;;4950030;28;19937;-67
2023/02/23 01:25:44;;;;;;;;;;;8.40;99.90;;;;;;4947099;28;20408;-67
2023/02/23 01:28:11;;;;;;;;;;;8.40;99.90;;;;;;4951350;28;19927;-67
2023/02/23 01:30:39;;;;;;;;;;;8.40;99.90;;;;;;4947634;28;19941;-67
2023/02/23 01:33:06;;;;;;;;;;;8.30;99.90;;;;;;4951109;28;19930;-67
2023/02/23 01:35:33;;;;;;;;;;;8.30;99.90;;;;;;4952785;28;19930;-67
2023/02/23 01:38:00;;;;;;;;;;;8.30;99.90;;;;;;4954097;28;19927;-68
2023/02/23 01:40:28;;;;;;;;;;;8.30;99.90;;;;;;4953319;28;20285;-68
2023/02/23 01:42:56;;;;;;;;;;;8.30;99.90;;;;;;4949406;29;19927;-66
2023/02/23 01:45:27;;;;;;;;;;;8.30;99.90;;;;;;4952406;29;20386;-66
2023/02/23 01:47:56;;;;;;;;;;;8.30;99.90;;;;;;4952773;29;20025;-66
2023/02/23 01:50:25;;;;;;;;;;;8.40;99.90;;;;;;4951445;28;19993;-66
2023/02/23 01:52:52;;;;;;;;;;;8.30;99.90;;;;;;4945772;28;19933;-66
2023/02/23 01:55:23;;;;;;;;;;;8.30;99.90;;;;;;4944900;28;19941;-66
2023/02/23 01:57:52;;;;;;;;;;;8.30;99.90;;;;;;4949815;28;19930;-66
2023/02/23 02:00:24;;;;;;;;;;;8.20;99.90;;;;;;4952452;28;19926;-67
2023/02/23 02:02:51;;;;;;;;;;;8.20;99.90;;;;;;4947716;28;20361;-66
2023/02/23 02:05:19;;;;;;;;;;;8.20;99.90;;;;;;4947814;28;19941;-68
2023/02/23 02:07:48;;;;;;;;;;;8.20;99.90;;;;;;4949799;28;19931;-66
2023/02/23 02:12:58;;;;;;;;;;;8.10;99.90;;;;;;4944154;28;19935;-68
2023/02/23 02:15:30;;;;;;;;;;;8.20;99.90;;;;;;4948069;28;19926;-68
2023/02/23 02:17:59;;;;;;;;;;;8.10;99.90;;;;;;4946598;28;19968;-68
2023/02/23 02:20:37;;;;;;;;;;;8.10;99.90;;;;;;4947118;28;19937;-68
2023/02/23 02:23:21;;;;;;;;;;;8.10;99.90;;;;;;4939688;28;20373;-68
2023/02/23 02:25:56;;;;;;;;;;;8.10;99.90;;;;;;4950332;28;19926;-68
2023/02/23 02:28:46;;;;;;;;;;;8.10;99.90;;;;;;4949958;28;19966;-68
2023/02/23 02:31:35;;;;;;;;;;;8.10;99.90;;;;;;4947502;28;19934;-68
2023/02/23 02:34:17;;;;;;;;;;;8.00;99.90;;;;;;4947715;28;20353;-68
2023/02/23 02:36:56;;;;;;;;;;;8.00;99.90;;;;;;4962834;28;20607;-68
2023/02/23 02:39:33;;;;;;;;;;;8.00;99.90;;;;;;4944695;28;19933;-68
2023/02/23 02:42:07;;;;;;;;;;;8.10;99.90;;;;;;4941359;28;19931;-66
2023/02/23 02:44:41;;;;;;;;;;;8.10;99.90;;;;;;4945241;28;19931;-67
2023/02/23 02:47:09;;;;;;;;;;;8.00;99.90;;;;;;4944480;28;20389;-66
2023/02/23 02:49:41;;;;;;;;;;;8.10;99.90;;;;;;4938926;29;20449;-66
2023/02/23 02:52:14;;;;;;;;;;;8.10;99.90;;;;;;4939770;28;19931;-66
2023/02/23 02:54:42;;;;;;;;;;;8.00;99.90;;;;;;4944232;28;20372;-67
2023/02/23 02:57:10;;;;;;;;;;;8.00;99.90;;;;;;4946515;28;20005;-67
2023/02/23 04:19:57;;;;;;;;;;;7.60;99.90;;;;;;4953072;29;20563;-68
2023/02/23 04:22:23;;;;;;;;;;;7.60;99.90;;;;;;4945192;28;19926;-68
2023/02/23 04:24:50;;;;;;;;;;;7.60;99.90;;;;;;4950184;28;19927;-68
2023/02/23 04:27:17;;;;;;;;;;;7.60;99.90;;;;;;4948323;28;19930;-67
2023/02/23 04:29:44;;;;;;;;;;;7.60;99.90;;;;;;4950839;28;19937;-69
2023/02/23 04:32:13;;;;;;;;;;;7.70;99.90;;;;;;4947618;28;20021;-67
2023/02/23 04:34:39;;;;;;;;;;;7.70;99.90;;;;;;4948857;28;19933;-67
2023/02/23 04:37:06;;;;;;;;;;;7.80;99.90;;;;;;4950744;28;19926;-68
2023/02/23 04:39:32;;;;;;;;;;;7.80;99.90;;;;;;4953696;28;19927;-68
2023/02/23 04:41:59;;;;;;;;;;;7.80;99.90;;;;;;4952510;28;19927;-67
2023/02/23 04:44:26;;;;;;;;;;;7.70;99.90;;;;;;4953590;28;19930;-67
2023/02/23 04:46:53;;;;;;;;;;;7.70;99.90;;;;;;4954669;28;19933;-68
2023/02/23 04:49:21;;;;;;;;;;;7.70;99.90;;;;;;4953578;28;20009;-65
2023/02/23 04:51:47;;;;;;;;;;;7.70;99.90;;;;;;4952850;28;20047;-67
2023/02/23 04:54:14;;;;;;;;;;;7.70;99.90;;;;;;4953588;28;19965;-66
2023/02/23 04:56:41;;;;;;;;;;;7.80;99.90;;;;;;4951167;28;20033;-66
2023/02/23 04:59:07;;;;;;;;;;;7.80;99.90;;;;;;4950793;28;20420;-66
2023/02/23 05:01:35;;;;;;;;;;;7.70;99.90;;;;;;4952361;29;20304;-66
2023/02/23 05:04:02;;;;;;;;;;;7.70;99.90;;;;;;4953029;28;19927;-66
2023/02/23 05:06:31;;;;;;;;;;;7.70;99.90;;;;;;4950840;28;19926;-66
2023/02/23 05:08:57;;;;;;;;;;;7.60;99.90;;;;;;4952566;28;19930;-66
2023/02/23 05:11:25;;;;;;;;;;;7.60;99.90;;;;;;4952460;28;20029;-66
2023/02/23 05:13:53;;;;;;;;;;;7.60;99.90;;;;;;4947268;28;19966;-66
2023/02/23 05:16:19;;;;;;;;;;;7.60;99.90;;;;;;4949024;28;20305;-68
2023/02/23 05:18:46;;;;;;;;;;;7.60;99.90;;;;;;4952681;28;19933;-68
2023/02/23 05:21:13;;;;;;;;;;;7.50;99.90;;;;;;4953201;29;20025;-69
2023/02/23 05:23:41;;;;;;;;;;;7.50;99.90;;;;;;4951288;29;20018;-67
2023/02/23 05:26:09;;;;;;;;;;;7.50;99.90;;;;;;4945394;29;19933;-66
2023/02/23 05:28:37;;;;;;;;;;;7.50;99.90;;;;;;4952987;29;19933;-68
2023/02/23 05:31:04;;;;;;;;;;;7.50;99.90;;;;;;4952014;28;20017;-67
2023/02/23 05:33:30;;;;;;;;;;;7.50;99.90;;;;;;4951291;28;19926;-68
2023/02/23 05:35:57;;;;;;;;;;;7.50;99.90;;;;;;4939600;28;19933;-69
2023/02/23 05:38:24;;;;;;;;;;;7.50;99.90;;;;;;4939387;28;19926;-69
2023/02/23 05:40:52;;;;;;;;;;;7.50;99.90;;;;;;4952479;29;19969;-70
2023/02/23 05:43:19;;;;;;;;;;;7.60;99.90;;;;;;4950669;29;20382;-68
2023/02/23 05:45:45;;;;;;;;;;;7.60;99.90;;;;;;4951451;28;19973;-69
2023/02/23 05:48:12;;;;;;;;;;;7.60;99.90;;;;;;4948980;28;20005;-69
2023/02/23 05:50:39;;;;;;;;;;;7.60;99.90;;;;;;4951467;28;19927;-70
2023/02/23 05:53:06;;;;;;;;;;;7.60;99.90;;;;;;4952498;28;20029;-70
2023/02/23 05:55:32;;;;;;;;;;;7.60;99.90;;;;;;4952674;28;20017;-70
2023/02/23 05:58:00;;;;;;;;;;;7.60;99.90;;;;;;4953466;28;20364;-69
2023/02/23 06:00:27;;;;;;;;;;;7.60;99.90;;;;;;4950629;28;19927;-69
2023/02/23 06:02:54;;;;;;;;;;;7.60;99.90;;;;;;4948152;28;19926;-69
2023/02/23 06:05:20;;;;;;;;;;;7.60;99.90;;;;;;4951340;28;20343;-70
2023/02/23 06:07:47;;;;;;;;;;;7.60;99.90;;;;;;4951634;28;20301;-68
2023/02/23 06:10:14;;;;;;;;;;;7.60;99.90;;;;;;4952891;29;19937;-69
2023/02/23 06:12:41;;;;;;;;;;;7.60;99.90;;;;;;4952248;28;20014;-69
2023/02/23 06:15:09;;;;;;;;;;;7.60;99.90;;;;;;4948762;28;19933;-69
2023/02/23 06:17:36;;;;;;;;;;;7.60;99.90;;;;;;4951617;28;20365;-68
2023/02/23 06:20:03;;;;;;;;;;;7.50;99.90;;;;;;4951263;28;19927;-68
2023/02/23 06:22:30;;;;;;;;;;;7.50;99.90;;;;;;4951745;28;19934;-68
2023/02/23 06:24:57;;;;;;;;;;;7.50;99.90;;;;;;4951643;28;19926;-67
2023/02/23 06:27:23;;;;;;;;;;;7.40;99.90;;;;;;4952475;29;19974;-69
2023/02/23 06:29:50;;;;;;;;;;;7.40;99.90;;;;;;4951057;28;20464;-69
2023/02/23 06:32:18;;;;;;;;;;;7.40;99.90;;;;;;4951348;28;20358;-68
2023/02/23 06:34:45;;;;;;;;;;;7.40;99.90;;;;;;4950375;28;20305;-68
2023/02/23 06:37:11;;;;;;;;;;;7.40;99.90;;;;;;4950436;28;20472;-66
2023/02/23 06:39:38;;;;;;;;;;;7.30;99.90;;;;;;4951134;28;19934;-68
2023/02/23 06:42:05;;;;;;;;;;;7.40;99.90;;;;;;4951260;28;20035;-69
2023/02/23 06:44:34;;;;;;;;;;;7.40;99.90;;;;;;4951182;28;20304;-67
2023/02/23 06:47:00;;;;;;;;;;;7.40;99.90;;;;;;4952733;29;19927;-69
2023/02/23 06:49:29;;;;;;;;;;;7.30;99.90;;;;;;4949841;28;20009;-68
2023/02/23 06:51:55;;;;;;;;;;;7.30;99.90;;;;;;4952640;29;20387;-68
2023/02/23 06:54:22;;;;;;;;;;;7.20;99.90;;;;;;4951832;28;19926;-68
2023/02/23 06:56:50;;;;;;;;;;;7.20;99.90;;;;;;4950478;28;19930;-68
2023/02/23 06:59:16;;;;;;;;;;;7.20;99.90;;;;;;4946886;28;19933;-69
2023/02/23 07:01:43;;;;;;;;;;;7.20;99.90;;;;;;4952209;29;19969;-68
2023/02/23 07:04:10;;;;;;;;;;;7.20;99.90;;;;;;4950242;28;19991;-69
2023/02/23 07:06:38;;;;;;;;;;;7.30;99.90;;;;;;4951555;28;19927;-68
2023/02/23 07:09:05;;;;;;;;;;;7.40;99.90;;;;;;4951301;28;19933;-67
2023/02/23 07:11:32;;;;;;;;;;;7.40;99.90;;;;;;4949079;28;19930;-68
2023/02/23 07:14:00;;;;;;;;;;;7.50;99.90;;;;;;4950761;28;20350;-67
2023/02/23 07:16:27;;;;;;;;;;;7.50;99.90;;;;;;4951401;28;19980;-68
2023/02/23 07:18:54;;;;;;;;;;;7.60;99.90;;;;;;4950895;28;19934;-68
2023/02/23 07:21:21;;;;;;;;;;;7.60;99.90;;;;;;4951157;28;20018;-68
2023/02/23 07:23:49;;;;;;;;;;;7.60;99.90;;;;;;4944671;28;19927;-68
2023/02/23 07:26:15;;;;;;;;;;;7.60;99.90;;;;;;4948954;28;19981;-67
2023/02/23 07:28:42;;;;;;;;;;;7.60;99.90;;;;;;4950544;28;20310;-67
2023/02/23 07:31:09;;;;;;;;;;;7.70;99.90;;;;;;4949011;28;20997;-69
2023/02/23 07:33:36;;;;;;;;;;;7.60;99.90;;;;;;4949504;28;20018;-68
2023/02/23 07:36:02;;;;;;;;;;;7.70;99.90;;;;;;4950482;28;19982;-67
2023/02/23 07:38:29;;;;;;;;;;;7.70;99.90;;;;;;4949861;28;19945;-69
2023/02/23 07:40:57;;;;;;;;;;;7.70;99.90;;;;;;4945426;28;20381;-68
2023/02/23 07:43:24;;;;;;;;;;;7.70;99.90;;;;;;4949271;28;19926;-67
2023/02/23 07:45:51;;;;;;;;;;;7.80;99.90;;;;;;4947577;28;20404;-67
2023/02/23 07:48:17;;;;;;;;;;;7.80;99.90;;;;;;4949364;28;19927;-67
2023/02/23 07:50:44;;;;;;;;;;;7.80;99.90;;;;;;4951017;29;19937;-67
2023/02/23 07:53:11;;;;;;;;;;;7.80;99.90;;;;;;4951466;28;20013;-69
2023/02/23 07:55:39;;;;;;;;;;;7.90;99.90;;;;;;4951038;29;19927;-67
2023/02/23 07:58:07;;;;;;;;;;;7.90;99.90;;;;;;4949546;28;19927;-67
2023/02/23 08:00:35;;;;;;;;;;;7.90;99.90;;;;;;4948298;28;20026;-65
2023/02/23 08:03:02;;;;;;;;;;;7.90;99.90;;;;;;4949538;28;19941;-66
2023/02/23 08:05:28;;;;;;;;;;;7.90;99.90;;;;;;4949816;28;19926;-68
2023/02/23 08:07:56;;;;;;;;;;;7.90;99.90;;;;;;4949533;28;19937;-68
2023/02/23 08:10:23;;;;;;;;;;;7.80;99.90;;;;;;4950620;29;20293;-70
2023/02/23 08:12:50;;;;;;;;;;;7.90;99.90;;;;;;4946391;28;19930;-71
2023/02/23 08:15:18;;;;;;;;;;;7.90;99.90;;;;;;4940149;29;19934;-71
2023/02/23 08:17:44;;;;;;;;;;;8.00;99.90;;;;;;4948896;28;20037;-70
2023/02/23 08:20:11;;;;;;;;;;;8.00;99.90;;;;;;4944388;28;20365;-70
2023/02/23 08:22:38;;;;;;;;;;;8.00;99.90;;;;;;4948512;28;20009;-69
2023/02/23 08:25:05;;;;;;;;;;;8.10;99.90;;;;;;4946381;28;20386;-69
2023/02/23 08:27:33;;;;;;;;;;;8.10;99.90;;;;;;4943656;29;20029;-67
2023/02/23 08:30:02;;;;;;;;;;;8.10;99.90;;;;;;4946322;28;19942;-66
2023/02/23 08:32:33;;;;;;;;;;;8.20;99.90;;;;;;4945312;28;19973;-68
2023/02/23 08:35:01;;;;;;;;;;;8.20;99.90;;;;;;4948908;29;19933;-69
2023/02/23 08:37:28;;;;;;;;;;;8.20;99.90;;;;;;4951896;28;19927;-68
2023/02/23 08:39:55;;;;;;;;;;;8.30;99.90;;;;;;4948611;29;19980;-69
2023/02/23 08:42:21;;;;;;;;;;;8.20;99.90;;;;;;4956694;28;19964;-69
2023/02/23 08:44:48;;;;;;;;;;;8.20;99.90;;;;;;4989195;28;19933;-69
2023/02/23 08:47:16;;;;;;;;;;;8.20;99.90;;;;;;4977212;28;19937;-69
2023/02/23 08:49:44;;;;;;;;;;;8.20;99.90;;;;;;4973840;28;19927;-70
2023/02/23 08:52:11;;;;;;;;;;;8.20;99.90;;;;;;4941929;28;20005;-70
2023/02/23 08:54:38;;;;;;;;;;;8.20;99.90;;;;;;4948840;28;19926;-70
2023/02/23 08:57:05;;;;;;;;;;;8.30;99.90;;;;;;4957515;28;19970;-70
2023/02/23 08:59:31;;;;;;;;;;;8.30;99.90;;;;;;4960198;28;20420;-68
2023/02/23 09:01:58;;;;;;;;;;;8.30;99.90;;;;;;4949068;28;19926;-69
2023/02/23 09:04:25;;;;;;;;;;;8.30;99.90;;;;;;4965643;28;19931;-70
2023/02/23 09:06:53;;;;;;;;;;;8.30;99.90;;;;;;4975924;28;19927;-68
2023/02/23 09:09:20;;;;;;;;;;;8.40;99.90;;;;;;4993903;28;19948;-69
2023/02/23 09:11:46;;;;;;;;;;;8.30;99.90;;;;;;4953290;29;19927;-68
2023/02/23 09:14:13;;;;;;;;;;;8.30;99.90;;;;;;4953267;28;19973;-69
2023/02/23 09:16:39;;;;;;;;;;;8.40;99.90;;;;;;4955117;28;19927;-69
2023/02/23 09:19:06;;;;;;;;;;;8.30;99.90;;;;;;4948025;29;20033;-69
2023/02/23 09:21:33;;;;;;;;;;;8.20;99.90;;;;;;4946041;28;20006;-69
2023/02/23 09:24:01;;;;;;;;;;;8.30;99.90;;;;;;4953324;29;20017;-69
2023/02/23 09:26:28;;;;;;;;;;;8.30;99.90;;;;;;4953856;29;19977;-68
2023/02/23 09:28:55;;;;;;;;;;;8.10;99.90;;;;;;4946479;28;19962;-68
2023/02/23 09:31:23;;;;;;;;;;;8.10;99.90;;;;;;4949458;29;19926;-70
2023/02/23 09:33:50;;;;;;;;;;;8.00;99.90;;;;;;4952677;29;19926;-70
2023/02/23 09:36:17;;;;;;;;;;;8.00;99.90;;;;;;4953796;29;20336;-69
2023/02/23 09:38:44;;;;;;;;;;;8.00;99.90;;;;;;4953825;28;19938;-68
2023/02/23 09:41:30;;;;;;;;;;;8.00;99.90;;;;;;4948486;28;20014;-68
2023/02/23 09:43:59;;;;;;;;;;;8.00;99.90;;;;;;4951507;28;19934;-69
2023/02/23 09:46:29;;;;;;;;;;;8.10;99.90;;;;;;4952931;28;19927;-69
2023/02/23 09:48:58;;;;;;;;;;;8.00;99.90;;;;;;4951156;29;19926;-68
2023/02/23 09:51:26;;;;;;;;;;;8.10;99.90;;;;;;4951978;28;19926;-70
2023/02/23 09:53:53;;;;;;;;;;;8.00;99.90;;;;;;4980854;28;19979;-69
2023/02/23 09:56:25;;;;;;;;;;;8.10;99.90;;;;;;4971429;28;20093;-71
2023/02/23 09:58:52;;;;;;;;;;;8.20;99.90;;;;;;4952068;29;20305;-70
2023/02/23 10:01:31;;;;;;;;;;;8.20;99.90;;;;;;4951528;28;19927;-69
2023/02/23 10:04:00;;;;;;;;;;;8.20;99.90;;;;;;4950894;28;19998;-69
2023/02/23 10:06:27;;;;;;;;;;;8.30;99.90;;;;;;4950815;29;19927;-68
2023/02/23 10:09:02;;;;;;;;;;;8.30;99.90;;;;;;4952534;29;20022;-68
2023/02/23 10:11:34;;;;;;;;;;;8.40;99.90;;;;;;4950912;28;20362;-69
2023/02/23 10:14:08;;;;;;;;;;;8.60;99.90;;;;;;4941890;28;19980;-68
2023/02/23 10:16:41;;;;;;;;;;;8.60;99.90;;;;;;4951832;28;20322;-68
2023/02/23 10:19:14;;;;;;;;;;;8.70;99.90;;;;;;4951847;28;19927;-68
2023/02/23 10:21:42;;;;;;;;;;;8.60;99.90;;;;;;4950066;28;20398;-67
2023/02/23 10:24:12;;;;;;;;;;;8.60;99.90;;;;;;4948846;28;20005;-68
2023/02/23 10:26:43;;;;;;;;;;;8.60;99.90;;;;;;4955436;28;19970;-68
2023/02/23 10:29:17;;;;;;;;;;;8.60;99.90;;;;;;4943519;28;20408;-68
2023/02/23 10:31:47;;;;;;;;;;;8.70;99.90;;;;;;4950415;28;20390;-68
2023/02/23 10:34:16;;;;;;;;;;;8.60;99.90;;;;;;4947558;29;19939;-68
2023/02/23 10:36:44;;;;;;;;;;;8.80;99.90;;;;;;4950622;28;20005;-67
2023/02/23 10:39:11;;;;;;;;;;;8.80;99.90;;;;;;4952960;28;19940;-67
2023/02/23 10:41:40;;;;;;;;;;;9.00;99.90;;;;;;4949013;28;19934;-68
2023/02/23 10:44:11;;;;;;;;;;;9.00;99.90;;;;;;4933260;29;19965;-68
2023/02/23 10:46:39;;;;;;;;;;;9.00;99.90;;;;;;4960042;28;19994;-69
2023/02/23 10:49:06;;;;;;;;;;;8.90;99.90;;;;;;4962407;28;19926;-68
2023/02/23 10:51:36;;;;;;;;;;;8.80;99.90;;;;;;4950651;28;19981;-69
2023/02/23 10:54:23;;;;;;;;;;;9.00;99.90;;;;;;4950993;29;20267;-69
2023/02/23 10:56:52;;;;;;;;;;;9.00;99.90;;;;;;4974833;28;19932;-68
2023/02/23 10:59:19;;;;;;;;;;;9.10;99.90;;;;;;4949965;28;20404;-68
2023/02/23 11:01:46;;;;;;;;;;;9.10;99.90;;;;;;4947276;28;20363;-68
2023/02/23 11:04:16;;;;;;;;;;;9.10;99.90;;;;;;4977635;28;20029;-68
2023/02/23 11:06:43;;;;;;;;;;;9.00;99.90;;;;;;4948357;29;19930;-66
2023/02/23 11:09:23;;;;;;;;;;;9.20;99.90;;;;;;4941160;29;19926;-68
2023/02/23 11:11:59;;;;;;;;;;;9.30;99.90;;;;;;4940613;28;19937;-68
2023/02/23 11:14:26;;;;;;;;;;;9.30;99.90;;;;;;4962826;28;19927;-68
2023/02/23 11:16:54;;;;;;;;;;;9.20;99.90;;;;;;4955855;28;19927;-68
2023/02/23 11:19:22;;;;;;;;;;;9.20;99.90;;;;;;4949580;28;20382;-66
2023/02/23 11:21:50;;;;;;;;;;;9.20;99.90;;;;;;4950962;28;19932;-68
2023/02/23 11:24:18;;;;;;;;;;;9.20;99.90;;;;;;4938843;28;19933;-68
2023/02/23 11:26:46;;;;;;;;;;;9.00;99.90;;;;;;4947878;29;20009;-67
2023/02/23 11:29:19;;;;;;;;;;;9.00;99.90;;;;;;4950152;29;20373;-66
2023/02/23 11:31:48;;;;;;;;;;;9.10;99.90;;;;;;4947924;28;19966;-66
2023/02/23 11:34:20;;;;;;;;;;;9.20;99.90;;;;;;4950561;29;20267;-67
2023/02/23 11:36:57;;;;;;;;;;;9.20;99.90;;;;;;4955740;28;20292;-67
2023/02/23 11:39:24;;;;;;;;;;;9.20;99.90;;;;;;4955670;28;19933;-67
2023/02/23 11:42:04;;;;;;;;;;;9.30;99.90;;;;;;4951360;29;19932;-67
2023/02/23 11:44:32;;;;;;;;;;;9.30;99.90;;;;;;4954614;28;19926;-67
2023/02/23 11:47:00;;;;;;;;;;;9.30;99.90;;;;;;4966430;28;20387;-66
2023/02/23 11:49:29;;;;;;;;;;;9.40;99.90;;;;;;4953781;28;20075;-66
2023/02/23 11:51:58;;;;;;;;;;;9.40;99.90;;;;;;4946305;28;20395;-66
2023/02/23 11:54:27;;;;;;;;;;;9.60;99.90;;;;;;4949192;28;19934;-67
2023/02/23 11:56:56;;;;;;;;;;;9.70;99.90;;;;;;4949604;28;20028;-65
2023/02/23 11:59:27;;;;;;;;;;;9.70;99.90;;;;;;4945746;28;20447;-66
2023/02/23 12:01:59;;;;;;;;;;;9.80;99.90;;;;;;4966064;28;19933;-66
2023/02/23 12:04:29;;;;;;;;;;;9.70;99.90;;;;;;4949453;28;20009;-67
2023/02/23 12:07:16;;;;;;;;;;;9.40;99.90;;;;;;4950962;29;19927;-66
2023/02/23 12:09:44;;;;;;;;;;;9.50;99.90;;;;;;4943046;28;20035;-67
2023/02/23 12:12:12;;;;;;;;;;;9.60;99.90;;;;;;4945297;29;20014;-67
2023/02/23 12:14:41;;;;;;;;;;;9.80;99.90;;;;;;4936222;28;19934;-67
2023/02/23 12:17:17;;;;;;;;;;;9.90;99.90;;;;;;4950025;28;19927;-66
2023/02/23 12:19:46;;;;;;;;;;;9.90;99.90;;;;;;4936903;28;19931;-67
2023/02/23 12:22:15;;;;;;;;;;;9.80;99.90;;;;;;4980693;28;19929;-68
2023/02/23 12:24:44;;;;;;;;;;;9.90;99.90;;;;;;4945243;28;19926;-67
2023/02/23 12:27:12;;;;;;;;;;;10.00;99.90;;;;;;4950399;29;19931;-67
2023/02/23 12:29:43;;;;;;;;;;;10.10;99.90;;;;;;4936690;28;19934;-67
2023/02/23 12:32:12;;;;;;;;;;;10.10;99.90;;;;;;4950563;29;20000;-67
2023/02/23 12:34:41;;;;;;;;;;;10.20;99.90;;;;;;4950052;28;20037;-67
2023/02/23 12:37:16;;;;;;;;;;;10.40;99.90;;;;;;4951247;28;20013;-66
2023/02/23 12:39:55;;;;;;;;;;;10.30;99.90;;;;;;4962932;28;20467;-70
2023/02/23 12:42:24;;;;;;;;;;;10.30;99.90;;;;;;4974778;28;20403;-68
2023/02/23 12:44:56;;;;;;;;;;;10.20;99.90;;;;;;4940617;28;20332;-69
2023/02/23 12:47:34;;;;;;;;;;;10.00;99.90;;;;;;4935258;28;20196;-68
2023/02/23 12:50:06;;;;;;;;;;;9.90;99.90;;;;;;4951272;28;19978;-68
2023/02/23 12:52:41;;;;;;;;;;;9.80;99.90;;;;;;4952450;29;19926;-68
2023/02/23 12:55:10;;;;;;;;;;;9.80;99.90;;;;;;4964584;28;19953;-69
2023/02/23 12:57:46;;;;;;;;;;;9.80;99.90;;;;;;4948967;28;19972;-69
2023/02/23 13:00:29;;;;;;;;;;;9.90;99.90;;;;;;4950602;28;19926;-67
2023/02/23 13:03:09;;;;;;;;;;;9.90;99.90;;;;;;4951070;28;19995;-67
2023/02/23 13:05:43;;;;;;;;;;;9.90;99.90;;;;;;4954419;28;19934;-68
2023/02/23 13:08:18;;;;;;;;;;;10.00;99.90;;;;;;4950430;28;19933;-67
2023/02/23 13:10:49;;;;;;;;;;;10.20;99.90;;;;;;4951118;28;19972;-66
2023/02/23 13:13:22;;;;;;;;;;;10.10;99.90;;;;;;4950490;28;19926;-67
2023/02/23 13:15:53;;;;;;;;;;;9.90;99.90;;;;;;4944314;28;19926;-66
2023/02/23 13:18:23;;;;;;;;;;;10.00;99.90;;;;;;4946854;28;19988;-66
2023/02/23 13:20:54;;;;;;;;;;;9.90;99.90;;;;;;4951342;28;19926;-66
2023/02/23 13:23:25;;;;;;;;;;;9.90;99.90;;;;;;4949291;29;20013;-66
2023/02/23 13:25:56;;;;;;;;;;;9.80;99.90;;;;;;4952997;29;19926;-66
2023/02/23 13:28:34;;;;;;;;;;;9.80;99.90;;;;;;4952556;29;19934;-66
2023/02/23 13:31:01;;;;;;;;;;;9.90;99.90;;;;;;4950230;28;19927;-66
2023/02/23 13:33:33;;;;;;;;;;;10.00;99.90;;;;;;4945419;29;20013;-67
2023/02/23 13:36:01;;;;;;;;;;;10.00;99.90;;;;;;4954091;28;19941;-66
2023/02/23 13:38:34;;;;;;;;;;;10.00;99.90;;;;;;4951982;29;19962;-65
2023/02/23 13:41:09;;;;;;;;;;;10.20;99.90;;;;;;4953359;29;19966;-65
2023/02/23 13:43:39;;;;;;;;;;;10.20;99.90;;;;;;4942570;28;19926;-66
2023/02/23 13:46:14;;;;;;;;;;;10.10;99.90;;;;;;4979635;28;19933;-66
2023/02/23 13:48:46;;;;;;;;;;;10.10;99.90;;;;;;4949117;28;19931;-66
2023/02/23 13:51:16;;;;;;;;;;;10.10;99.90;;;;;;4952057;28;20353;-66
2023/02/23 13:53:45;;;;;;;;;;;10.20;99.90;;;;;;4956678;28;19926;-66
2023/02/23 13:56:16;;;;;;;;;;;10.20;99.90;;;;;;4952808;29;19933;-66
2023/02/23 13:58:46;;;;;;;;;;;10.20;99.90;;;;;;4950762;29;19930;-66
2023/02/23 14:01:15;;;;;;;;;;;10.10;99.90;;;;;;4949310;28;20441;-65
2023/02/23 14:03:45;;;;;;;;;;;10.20;99.90;;;;;;4955990;28;19927;-66
2023/02/23 14:06:13;;;;;;;;;;;10.20;99.90;;;;;;4952182;29;20301;-66
2023/02/23 14:08:42;;;;;;;;;;;10.30;99.90;;;;;;4951803;29;20022;-66
2023/02/23 14:11:09;;;;;;;;;;;10.30;99.90;;;;;;4949017;28;19939;-66
2023/02/23 14:13:40;;;;;;;;;;;10.10;99.90;;;;;;4972893;28;20254;-66
2023/02/23 14:16:14;;;;;;;;;;;9.90;99.90;;;;;;4951647;29;19933;-67
2023/02/23 14:18:53;;;;;;;;;;;10.00;99.90;;;;;;4946700;28;19981;-67
2023/02/23 14:21:26;;;;;;;;;;;10.30;99.90;;;;;;4992491;28;20114;-67
2023/02/23 14:24:01;;;;;;;;;;;10.60;99.90;;;;;;5039559;28;20024;-67
2023/02/23 14:26:52;;;;;;;;;;;10.90;99.90;;;;;;4952008;28;20013;-67
2023/02/23 14:29:26;;;;;;;;;;;10.70;99.90;;;;;;4924071;28;19934;-67
2023/02/23 14:31:54;;;;;;;;;;;10.70;99.90;;;;;;4966789;28;19935;-65
2023/02/23 14:34:22;;;;;;;;;;;10.50;99.90;;;;;;4975172;28;19927;-65
2023/02/23 14:36:52;;;;;;;;;;;10.40;99.90;;;;;;4971588;28;19927;-64
2023/02/23 14:39:22;;;;;;;;;;;10.40;99.90;;;;;;4952284;29;19962;-66
2023/02/23 14:41:50;;;;;;;;;;;10.20;99.90;;;;;;5014905;28;19969;-67
2023/02/23 14:44:18;;;;;;;;;;;9.90;99.90;;;;;;4961090;28;20439;-65
2023/02/23 14:46:55;;;;;;;;;;;9.80;99.90;;;;;;4950461;28;20408;-65
2023/02/23 14:49:26;;;;;;;;;;;9.90;99.90;;;;;;4951569;29;19970;-66
2023/02/23 14:51:54;;;;;;;;;;;10.00;99.90;;;;;;4951781;29;19927;-66
2023/02/23 14:54:25;;;;;;;;;;;10.00;99.90;;;;;;4952864;28;20356;-66
2023/02/23 14:56:52;;;;;;;;;;;10.10;99.90;;;;;;4956226;28;20013;-67
2023/02/23 14:59:21;;;;;;;;;;;10.30;99.90;;;;;;4948459;28;19926;-66
2023/02/23 15:01:49;;;;;;;;;;;10.50;99.90;;;;;;4993065;28;20386;-67
2023/02/23 15:04:17;;;;;;;;;;;10.70;99.90;;;;;;4951698;29;19927;-66
2023/02/23 15:06:45;;;;;;;;;;;10.90;99.90;;;;;;4983078;28;19932;-66
2023/02/23 15:09:16;;;;;;;;;;;11.10;99.90;;;;;;4978074;28;20578;-66
2023/02/23 15:11:44;;;;;;;;;;;11.10;99.90;;;;;;4957154;28;19933;-66
2023/02/23 15:14:13;;;;;;;;;;;11.10;99.90;;;;;;4978621;28;20051;-66
2023/02/23 15:16:43;;;;;;;;;;;10.90;99.90;;;;;;4989850;28;19996;-67
2023/02/23 15:19:15;;;;;;;;;;;10.90;99.90;;;;;;4958129;28;19962;-66
2023/02/23 15:21:42;;;;;;;;;;;10.90;99.90;;;;;;5003687;28;19924;-66
2023/02/23 15:24:12;;;;;;;;;;;11.00;99.90;;;;;;4971917;28;20068;-65
2023/02/23 15:26:40;;;;;;;;;;;11.10;99.90;;;;;;4956552;28;19985;-65
2023/02/23 15:29:12;;;;;;;;;;;10.80;99.90;;;;;;4963707;28;19969;-66
2023/02/23 15:31:39;;;;;;;;;;;10.60;99.90;;;;;;4969796;28;19931;-66
2023/02/23 15:34:09;;;;;;;;;;;10.50;99.90;;;;;;4983944;28;20301;-65
2023/02/23 15:36:38;;;;;;;;;;;10.60;99.90;;;;;;4954378;28;19933;-66
2023/02/23 15:39:06;;;;;;;;;;;10.60;99.90;;;;;;4994485;28;19929;-66
2023/02/23 15:41:35;;;;;;;;;;;10.50;99.90;;;;;;4977829;28;19926;-66
2023/02/23 15:44:05;;;;;;;;;;;10.40;99.90;;;;;;4949959;28;19950;-66
2023/02/23 15:46:33;;;;;;;;;;;10.40;99.90;;;;;;4950155;29;19965;-67
2023/02/23 15:49:02;;;;;;;;;;;10.40;99.90;;;;;;4949942;29;19926;-68
2023/02/23 15:51:34;;;;;;;;;;;10.40;99.90;;;;;;4949727;28;19926;-67
2023/02/23 15:54:06;;;;;;;;;;;10.50;99.90;;;;;;4950628;29;20009;-67
2023/02/23 15:56:35;;;;;;;;;;;10.60;99.90;;;;;;4950299;29;19926;-67
2023/02/23 15:59:02;;;;;;;;;;;10.60;99.90;;;;;;4950944;29;19927;-67
2023/02/23 16:01:30;;;;;;;;;;;10.70;99.90;;;;;;4950070;29;19966;-66
2023/02/23 16:04:01;;;;;;;;;;;10.80;99.90;;;;;;4949543;28;20443;-66